createdAt,value
2022-10-19T00:01:12.025Z,100.00
2022-10-19T00:03:40.021Z,100.00
2022-10-19T00:06:18.164Z,100.00
2022-10-19T00:08:46.542Z,100.00
2022-10-19T00:11:14.377Z,100.00
2022-10-19T00:13:42.352Z,100.00
2022-10-19T00:16:12.194Z,100.00
2022-10-19T00:18:40.535Z,100.00
2022-10-19T00:21:10.282Z,100.00
2022-10-19T00:23:40.013Z,100.00
2022-10-19T00:26:08.316Z,100.00
2022-10-19T00:28:36.803Z,100.00
2022-10-19T00:31:06.050Z,100.00
2022-10-19T00:33:33.995Z,100.00
2022-10-19T00:36:02.434Z,100.00
2022-10-19T00:38:30.537Z,100.00
2022-10-19T00:40:59.819Z,100.00
2022-10-19T00:43:32.532Z,100.00
2022-10-19T00:46:00.389Z,100.00
2022-10-19T00:48:32.760Z,100.00
2022-10-19T00:51:01.022Z,100.00
2022-10-19T00:53:31.826Z,100.00
2022-10-19T00:56:06.897Z,100.00
2022-10-19T00:58:35.174Z,100.00
2022-10-19T01:01:06.113Z,100.00
2022-10-19T01:03:35.274Z,100.00
2022-10-19T01:06:04.090Z,100.00
2022-10-19T01:08:32.305Z,100.00
2022-10-19T01:11:14.505Z,100.00
2022-10-19T01:13:52.981Z,100.00
2022-10-19T01:16:27.486Z,100.00
2022-10-19T01:19:00.729Z,100.00
2022-10-19T01:21:35.836Z,100.00
2022-10-19T01:24:41.829Z,100.00
2022-10-19T01:27:40.272Z,100.00
2022-10-19T01:30:14.792Z,100.00
2022-10-19T01:33:11.170Z,100.00
2022-10-19T01:35:46.284Z,100.00
2022-10-19T01:38:24.082Z,100.00
2022-10-19T01:40:58.596Z,100.00
2022-10-19T01:43:39.428Z,100.00
2022-10-19T01:46:14.533Z,100.00
2022-10-19T01:48:46.857Z,100.00
2022-10-19T01:51:19.521Z,100.00
2022-10-19T01:53:50.367Z,100.00
2022-10-19T01:56:22.050Z,100.00
2022-10-19T01:58:52.255Z,100.00
2022-10-19T02:01:25.397Z,100.00
2022-10-19T02:03:54.711Z,100.00
2022-10-19T02:06:23.332Z,100.00
2022-10-19T02:08:53.671Z,100.00
2022-10-19T02:11:23.389Z,100.00
2022-10-19T02:13:57.786Z,100.00
2022-10-19T02:16:31.678Z,100.00
2022-10-19T02:19:01.257Z,100.00
2022-10-19T02:21:29.806Z,100.00
2022-10-19T02:23:57.666Z,100.00
2022-10-19T02:26:25.475Z,100.00
2022-10-19T02:28:55.887Z,100.00
2022-10-19T02:31:24.426Z,100.00
2022-10-19T02:33:54.421Z,100.00
2022-10-19T02:36:22.955Z,100.00
2022-10-19T02:38:51.043Z,100.00
2022-10-19T02:41:23.349Z,100.00
2022-10-19T02:43:57.059Z,100.00
2022-10-19T02:46:31.025Z,100.00
2022-10-19T02:49:02.201Z,100.00
2022-10-19T02:51:32.586Z,100.00
2022-10-19T02:54:04.160Z,100.00
2022-10-19T02:56:33.756Z,100.00
2022-10-19T02:59:01.771Z,100.00
2022-10-19T03:01:29.748Z,100.00
2022-10-19T03:03:57.674Z,100.00
2022-10-19T03:06:26.899Z,100.00
2022-10-19T03:08:54.671Z,100.00
2022-10-19T03:11:22.551Z,100.00
2022-10-19T03:13:50.457Z,100.00
2022-10-19T03:16:18.656Z,100.00
2022-10-19T03:18:49.372Z,100.00
2022-10-19T03:21:17.466Z,100.00
2022-10-19T03:23:46.865Z,100.00
2022-10-19T03:26:16.414Z,100.00
2022-10-19T03:28:44.290Z,100.00
2022-10-19T03:31:12.147Z,100.00
2022-10-19T03:33:40.754Z,100.00
2022-10-19T03:36:22.584Z,100.00
2022-10-19T03:38:56.381Z,100.00
2022-10-19T03:41:26.761Z,100.00
2022-10-19T03:43:54.589Z,100.00
2022-10-19T03:46:22.996Z,100.00
2022-10-19T03:48:51.089Z,100.00
2022-10-19T03:51:20.878Z,100.00
2022-10-19T03:53:49.522Z,100.00
2022-10-19T03:56:21.826Z,100.00
2022-10-19T03:58:52.001Z,100.00
2022-10-19T04:01:21.883Z,100.00
2022-10-19T04:03:54.210Z,100.00
2022-10-19T04:06:25.258Z,100.00
2022-10-19T04:08:53.647Z,100.00
2022-10-19T04:11:24.887Z,100.00
2022-10-19T04:13:53.793Z,100.00
2022-10-19T04:16:24.104Z,100.00
2022-10-19T04:18:52.304Z,100.00
2022-10-19T04:21:22.843Z,100.00
2022-10-19T04:23:50.949Z,100.00
2022-10-19T04:26:19.126Z,100.00
2022-10-19T04:28:48.473Z,100.00
2022-10-19T04:31:16.373Z,100.00
2022-10-19T04:33:44.272Z,100.00
2022-10-19T04:36:13.166Z,100.00
2022-10-19T04:38:42.006Z,100.00
2022-10-19T04:41:13.856Z,100.00
2022-10-19T04:43:42.171Z,100.00
2022-10-19T04:46:13.952Z,100.00
2022-10-19T04:48:42.239Z,100.00
2022-10-19T04:51:10.950Z,100.00
2022-10-19T04:53:41.124Z,100.00
2022-10-19T04:56:12.102Z,100.00
2022-10-19T04:58:39.971Z,100.00
2022-10-19T05:01:09.763Z,100.00
2022-10-19T05:03:39.281Z,100.00
2022-10-19T05:06:07.655Z,100.00
2022-10-19T05:08:36.260Z,100.00
2022-10-19T05:11:04.894Z,100.00
2022-10-19T05:13:33.524Z,100.00
2022-10-19T05:16:03.373Z,100.00
2022-10-19T05:18:31.253Z,100.00
2022-10-19T05:21:05.240Z,100.00
2022-10-19T05:26:08.412Z,100.00
2022-10-19T05:28:38.250Z,100.00
2022-10-19T05:31:07.697Z,100.00
2022-10-19T05:33:36.419Z,100.00
2022-10-19T05:36:18.573Z,100.00
2022-10-19T05:38:48.137Z,100.00
2022-10-19T05:41:16.801Z,100.00
2022-10-19T05:43:45.016Z,100.00
2022-10-19T05:46:14.720Z,100.00
2022-10-19T05:48:42.615Z,100.00
2022-10-19T05:51:13.387Z,100.00
2022-10-19T05:53:43.291Z,100.00
2022-10-19T05:56:15.730Z,100.00
2022-10-19T05:58:44.061Z,100.00
2022-10-19T06:01:12.727Z,100.00
2022-10-19T06:03:40.908Z,100.00
2022-10-19T06:06:09.893Z,100.00
2022-10-19T06:08:39.252Z,100.00
2022-10-19T06:11:10.490Z,100.00
2022-10-19T06:13:39.200Z,100.00
2022-10-19T06:16:08.404Z,100.00
2022-10-19T06:18:36.676Z,100.00
2022-10-19T06:21:07.611Z,100.00
2022-10-19T06:23:36.248Z,100.00
2022-10-19T06:26:06.185Z,100.00
2022-10-19T06:28:36.569Z,100.00
2022-10-19T06:31:07.159Z,100.00
2022-10-19T06:33:37.463Z,100.00
2022-10-19T06:36:09.598Z,100.00
2022-10-19T06:38:37.484Z,100.00
2022-10-19T06:41:05.542Z,100.00
2022-10-19T06:43:35.306Z,100.00
2022-10-19T06:46:05.362Z,100.00
2022-10-19T06:48:33.262Z,100.00
2022-10-19T06:51:06.201Z,100.00
2022-10-19T06:53:34.910Z,100.00
2022-10-19T06:56:04.826Z,100.00
2022-10-19T06:58:37.468Z,100.00
2022-10-19T07:01:07.634Z,100.00
2022-10-19T07:03:36.644Z,100.00
2022-10-19T07:06:06.659Z,100.00
2022-10-19T07:08:36.058Z,100.00
2022-10-19T07:11:07.136Z,100.00
2022-10-19T07:13:35.367Z,100.00
2022-10-19T07:16:06.846Z,100.00
2022-10-19T07:18:36.123Z,100.00
2022-10-19T07:21:06.576Z,100.00
2022-10-19T07:23:36.550Z,100.00
2022-10-19T07:26:06.611Z,100.00
2022-10-19T07:28:35.146Z,100.00
2022-10-19T07:31:08.576Z,100.00
2022-10-19T07:33:36.872Z,100.00
2022-10-19T07:36:07.411Z,100.00
2022-10-19T07:38:35.454Z,100.00
2022-10-19T07:41:05.893Z,100.00
2022-10-19T07:43:33.612Z,100.00
2022-10-19T07:46:03.186Z,100.00
2022-10-19T07:48:32.806Z,100.00
2022-10-19T07:51:02.402Z,100.00
2022-10-19T07:53:30.366Z,100.00
2022-10-19T07:56:04.694Z,100.00
2022-10-19T07:58:32.614Z,100.00
2022-10-19T08:01:01.734Z,100.00
2022-10-19T08:06:19.052Z,100.00
2022-10-19T08:08:47.553Z,100.00
2022-10-19T08:11:18.312Z,100.00
2022-10-19T08:13:46.537Z,100.00
2022-10-19T08:16:33.737Z,100.00
2022-10-19T08:19:04.016Z,100.00
2022-10-19T08:21:33.304Z,100.00
2022-10-19T08:24:01.473Z,100.00
2022-10-19T08:26:29.829Z,100.00
2022-10-19T08:29:01.020Z,100.00
2022-10-19T08:31:29.199Z,100.00
2022-10-19T08:33:57.428Z,100.00
2022-10-19T08:36:26.162Z,100.00
2022-10-19T08:38:55.334Z,100.00
2022-10-19T08:41:31.644Z,100.00
2022-10-19T08:44:15.725Z,100.00
2022-10-19T08:46:52.407Z,100.00
2022-10-19T08:49:24.280Z,100.00
2022-10-19T08:51:57.211Z,100.00
2022-10-19T08:54:33.757Z,100.00
2022-10-19T08:57:15.715Z,100.00
2022-10-19T08:59:50.735Z,100.00
2022-10-19T09:02:23.758Z,100.00
2022-10-19T09:04:58.766Z,100.00
2022-10-19T09:07:30.036Z,100.00
2022-10-19T09:10:03.700Z,100.00
2022-10-19T09:12:46.861Z,100.00
2022-10-19T09:15:18.836Z,100.00
2022-10-19T09:17:46.844Z,100.00
2022-10-19T09:20:18.391Z,100.00
2022-10-19T09:22:50.285Z,100.00
2022-10-19T09:25:22.666Z,100.00
2022-10-19T09:27:56.630Z,100.00
2022-10-19T09:30:25.248Z,100.00
2022-10-19T09:33:00.095Z,100.00
2022-10-19T09:35:32.876Z,100.00
2022-10-19T09:38:01.546Z,100.00
2022-10-19T09:40:32.692Z,100.00
2022-10-19T09:43:08.789Z,100.00
2022-10-19T09:45:41.778Z,100.00
2022-10-19T09:48:18.311Z,100.00
2022-10-19T09:50:51.482Z,100.00
2022-10-19T09:53:21.899Z,100.00
2022-10-19T09:55:54.239Z,100.00
2022-10-19T10:01:39.934Z,100.00
2022-10-19T10:04:14.870Z,100.00
2022-10-19T10:06:44.787Z,100.00
2022-10-19T10:09:17.363Z,100.00
2022-10-19T10:11:51.143Z,100.00
2022-10-19T10:14:22.543Z,100.00
2022-10-19T10:16:56.366Z,100.00
2022-10-19T10:19:29.680Z,100.00
2022-10-19T10:21:59.311Z,100.00
2022-10-19T10:24:29.452Z,100.00
2022-10-19T10:27:00.574Z,100.00
2022-10-19T10:29:30.716Z,100.00
2022-10-19T10:32:04.282Z,100.00
2022-10-19T10:34:49.472Z,100.00
2022-10-19T10:37:21.189Z,100.00
2022-10-19T10:39:53.242Z,100.00
2022-10-19T10:42:29.461Z,100.00
2022-10-19T10:44:57.827Z,100.00
2022-10-19T10:47:27.517Z,100.00
2022-10-19T10:49:58.750Z,100.00
2022-10-19T10:52:29.060Z,100.00
2022-10-19T10:55:02.898Z,100.00
2022-10-19T10:57:36.159Z,100.00
2022-10-19T11:00:11.209Z,100.00
2022-10-19T11:02:47.330Z,100.00
2022-10-19T11:05:20.546Z,100.00
2022-10-19T11:07:53.003Z,100.00
2022-10-19T11:10:39.188Z,100.00
2022-10-19T11:17:04.712Z,100.00
2022-10-19T11:19:39.285Z,100.00
2022-10-19T11:36:33.937Z,100.00
2022-10-19T11:39:20.016Z,100.00
2022-10-19T11:41:55.920Z,100.00
2022-10-19T11:44:36.646Z,100.00
2022-10-19T11:47:31.287Z,100.00
2022-10-19T11:50:10.901Z,100.00
2022-10-19T11:52:49.580Z,100.00
2022-10-19T11:55:28.718Z,100.00
2022-10-19T11:58:06.514Z,100.00
2022-10-19T12:00:41.697Z,100.00
2022-10-19T12:03:29.807Z,100.00
2022-10-19T12:06:09.168Z,100.00
2022-10-19T12:08:53.784Z,100.00
2022-10-19T12:11:33.109Z,100.00
2022-10-19T12:14:04.799Z,100.00
2022-10-19T12:16:38.930Z,100.00
2022-10-19T12:19:13.407Z,100.00
2022-10-19T12:21:43.193Z,100.00
2022-10-19T12:24:17.046Z,100.00
2022-10-19T12:26:46.541Z,100.00
2022-10-19T12:29:18.807Z,100.00
2022-10-19T12:31:48.012Z,100.00
2022-10-19T12:34:27.849Z,100.00
2022-10-19T12:37:01.771Z,100.00
2022-10-19T12:39:39.245Z,100.00
2022-10-19T12:42:20.211Z,100.00
2022-10-19T12:45:25.301Z,100.00
2022-10-19T12:48:21.863Z,100.00
2022-10-19T12:51:05.144Z,100.00
2022-10-19T12:53:38.046Z,100.00
2022-10-19T12:56:11.842Z,100.00
2022-10-19T12:58:48.161Z,100.00
2022-10-19T13:01:20.996Z,100.00
2022-10-19T13:03:51.871Z,100.00
2022-10-19T13:06:31.915Z,100.00
2022-10-19T13:09:02.974Z,100.00
2022-10-19T13:11:32.612Z,100.00
2022-10-19T13:14:06.481Z,100.00
2022-10-19T13:17:06.757Z,100.00
2022-10-19T13:19:34.997Z,100.00
2022-10-19T13:22:29.768Z,100.00
2022-10-19T13:25:21.429Z,100.00
2022-10-19T13:27:51.814Z,100.00
2022-10-19T13:31:03.385Z,100.00
2022-10-19T13:33:55.961Z,100.00
2022-10-19T13:36:26.144Z,100.00
2022-10-19T13:39:13.772Z,100.00
2022-10-19T13:41:51.206Z,100.00
2022-10-19T13:44:25.156Z,100.00
2022-10-19T13:47:24.393Z,100.00
2022-10-19T13:50:14.615Z,100.00
2022-10-19T13:53:01.441Z,100.00
2022-10-19T13:55:52.632Z,100.00
2022-10-19T13:58:49.583Z,100.00
2022-10-19T14:01:30.983Z,100.00
2022-10-19T14:04:18.184Z,100.00
2022-10-19T14:06:53.315Z,100.00
2022-10-19T14:09:38.812Z,100.00
2022-10-19T14:12:13.064Z,100.00
2022-10-19T14:14:42.974Z,100.00
2022-10-19T14:17:20.809Z,100.00
2022-10-19T14:19:51.406Z,100.00
2022-10-19T14:22:27.382Z,100.00
2022-10-19T14:25:02.376Z,100.00
2022-10-19T14:27:31.692Z,100.00
2022-10-19T14:29:59.994Z,100.00
2022-10-19T14:32:30.622Z,100.00
2022-10-19T14:37:33.435Z,100.00
2022-10-19T14:40:04.250Z,100.00
2022-10-19T14:42:41.595Z,100.00
2022-10-19T14:45:28.648Z,100.00
2022-10-19T14:48:00.248Z,100.00
2022-10-19T14:50:39.844Z,100.00
2022-10-19T14:53:32.931Z,100.00
2022-10-19T14:56:05.030Z,99.88
2022-10-19T14:58:40.986Z,99.83
2022-10-19T15:01:10.828Z,98.72
2022-10-19T15:03:43.879Z,97.19
2022-10-19T15:06:19.884Z,97.33
2022-10-19T15:08:51.846Z,98.63
2022-10-19T15:11:26.660Z,97.44
2022-10-19T15:14:01.563Z,96.89
2022-10-19T15:16:32.216Z,97.09
2022-10-19T15:19:05.479Z,96.55
2022-10-19T15:21:33.908Z,96.03
2022-10-19T15:24:10.201Z,96.27
2022-10-19T15:26:38.148Z,96.38
2022-10-19T15:29:12.752Z,97.47
2022-10-19T15:31:40.567Z,95.69
2022-10-19T15:34:24.720Z,96.46
2022-10-19T15:36:58.181Z,96.34
2022-10-19T15:39:38.922Z,96.27
2022-10-19T15:42:34.902Z,97.06
2022-10-19T15:45:03.100Z,98.72
2022-10-19T15:47:31.321Z,98.92
2022-10-19T15:50:02.593Z,97.06
2022-10-19T15:52:33.558Z,95.93
2022-10-19T15:55:02.400Z,95.17
2022-10-19T15:57:33.385Z,96.65
2022-10-19T16:00:07.808Z,98.97
2022-10-19T16:02:36.090Z,100.00
2022-10-19T16:07:39.282Z,100.00
2022-10-19T16:10:08.901Z,100.00
2022-10-19T16:12:36.892Z,100.00
2022-10-19T16:15:05.571Z,100.00
2022-10-19T16:17:34.504Z,100.00
2022-10-19T16:20:02.600Z,100.00
2022-10-19T16:22:32.422Z,100.00
2022-10-19T16:25:00.303Z,100.00
2022-10-19T16:27:28.334Z,100.00
2022-10-19T16:29:56.132Z,100.00
2022-10-19T16:32:24.110Z,100.00
2022-10-19T16:34:51.965Z,100.00
2022-10-19T16:37:19.782Z,100.00
2022-10-19T16:39:49.019Z,100.00
2022-10-19T16:42:17.010Z,100.00
2022-10-19T16:44:45.305Z,100.00
2022-10-19T16:47:13.869Z,100.00
2022-10-19T16:49:41.676Z,100.00
2022-10-19T16:52:13.862Z,100.00
2022-10-19T16:54:41.669Z,100.00
2022-10-19T16:57:10.977Z,100.00
2022-10-19T16:59:38.896Z,100.00
2022-10-19T17:02:11.069Z,100.00
2022-10-19T17:04:41.586Z,100.00
2022-10-19T17:07:09.467Z,100.00
2022-10-19T17:09:41.694Z,100.00
2022-10-19T17:12:12.436Z,100.00
2022-10-19T17:14:42.038Z,100.00
2022-10-19T17:17:11.611Z,100.00
2022-10-19T17:19:39.818Z,100.00
2022-10-19T17:22:07.654Z,100.00
2022-10-19T17:24:37.346Z,100.00
2022-10-19T17:27:05.262Z,100.00
2022-10-19T17:29:34.682Z,100.00
2022-10-19T17:32:02.710Z,100.00
2022-10-19T17:34:30.597Z,100.00
2022-10-19T17:36:59.606Z,100.00
2022-10-19T17:39:29.974Z,100.00
2022-10-19T17:42:01.682Z,100.00
2022-10-19T17:44:31.570Z,100.00
2022-10-19T17:47:01.881Z,100.00
2022-10-19T17:49:30.380Z,100.00
2022-10-19T17:51:58.413Z,100.00
2022-10-19T17:54:26.489Z,100.00
2022-10-19T17:56:54.447Z,100.00
2022-10-19T17:59:34.930Z,100.00
2022-10-19T18:02:07.487Z,100.00
2022-10-19T18:07:04.211Z,100.00
2022-10-19T18:09:32.509Z,100.00
2022-10-19T18:12:04.784Z,100.00
2022-10-19T18:14:35.291Z,100.00
2022-10-19T18:17:04.642Z,100.00
2022-10-19T18:19:33.206Z,100.00
2022-10-19T18:22:01.029Z,100.00
2022-10-19T18:24:29.232Z,100.00
2022-10-19T18:26:57.249Z,100.00
2022-10-19T18:29:27.057Z,100.00
2022-10-19T18:31:55.673Z,100.00
2022-10-19T18:34:26.576Z,100.00
2022-10-19T18:36:55.425Z,100.00
2022-10-19T18:39:23.967Z,100.00
2022-10-19T18:41:55.136Z,100.00
2022-10-19T18:44:27.129Z,100.00
2022-10-19T18:46:56.715Z,100.00
2022-10-19T18:49:26.321Z,100.00
2022-10-19T18:51:55.870Z,100.00
2022-10-19T18:54:26.168Z,100.00
2022-10-19T18:56:54.415Z,100.00
2022-10-19T18:59:22.336Z,100.00
2022-10-19T19:01:50.465Z,100.00
2022-10-19T19:04:18.432Z,100.00
2022-10-19T19:06:47.707Z,100.00
2022-10-19T19:09:17.329Z,100.00
2022-10-19T19:11:45.268Z,100.00
2022-10-19T19:14:14.952Z,100.00
2022-10-19T19:16:45.028Z,100.00
2022-10-19T19:19:14.652Z,100.00
2022-10-19T19:21:44.426Z,100.00
2022-10-19T19:24:17.085Z,100.00
2022-10-19T19:26:48.408Z,100.00
2022-10-19T19:29:16.832Z,100.00
2022-10-19T19:31:44.707Z,100.00
2022-10-19T19:34:13.001Z,100.00
2022-10-19T19:36:46.911Z,100.00
2022-10-19T19:39:18.653Z,100.00
2022-10-19T19:41:47.567Z,100.00
2022-10-19T19:44:15.419Z,100.00
2022-10-19T19:46:43.559Z,100.00
2022-10-19T19:49:11.926Z,100.00
2022-10-19T19:51:39.937Z,100.00
2022-10-19T19:54:07.892Z,100.00
2022-10-19T19:56:37.535Z,100.00
2022-10-19T19:59:05.565Z,100.00
2022-10-19T20:01:33.948Z,100.00
2022-10-19T20:06:36.648Z,100.00
2022-10-19T20:09:05.342Z,100.00
2022-10-19T20:11:34.537Z,100.00
2022-10-19T20:14:05.397Z,100.00
2022-10-19T20:16:33.651Z,100.00
2022-10-19T20:19:05.304Z,100.00
2022-10-19T20:21:33.711Z,100.00
2022-10-19T20:24:02.320Z,100.00
2022-10-19T20:26:30.544Z,100.00
2022-10-19T20:28:58.998Z,100.00
2022-10-19T20:34:00.956Z,100.00
2022-10-19T20:36:28.967Z,100.00
2022-10-19T20:38:58.730Z,100.00
2022-10-19T20:41:28.363Z,100.00
2022-10-19T20:43:57.390Z,100.00
2022-10-19T20:46:27.353Z,100.00
2022-10-19T20:48:59.572Z,100.00
2022-10-19T20:51:32.021Z,100.00
2022-10-19T20:54:01.556Z,100.00
2022-10-19T20:56:30.951Z,100.00
2022-10-19T20:59:00.757Z,100.00
2022-10-19T21:01:29.921Z,100.00
2022-10-19T21:04:03.226Z,100.00
2022-10-19T21:06:32.857Z,100.00
2022-10-19T21:09:01.525Z,100.00
2022-10-19T21:11:32.097Z,100.00
2022-10-19T21:14:01.258Z,100.00
2022-10-19T21:16:30.259Z,100.00
2022-10-19T21:19:00.648Z,100.00
2022-10-19T21:21:31.951Z,100.00
2022-10-19T21:24:04.025Z,100.00
2022-10-19T21:26:34.352Z,100.00
2022-10-19T21:29:03.525Z,100.00
2022-10-19T21:31:31.572Z,100.00
2022-10-19T21:34:04.473Z,100.00
2022-10-19T21:36:32.309Z,100.00
2022-10-19T21:39:00.159Z,100.00
2022-10-19T21:41:28.052Z,100.00
2022-10-19T21:43:55.818Z,100.00
2022-10-19T21:46:24.768Z,100.00
2022-10-19T21:48:53.714Z,100.00
2022-10-19T21:51:35.906Z,100.00
2022-10-19T21:54:04.602Z,100.00
2022-10-19T21:56:33.115Z,100.00
2022-10-19T21:59:01.489Z,100.00
2022-10-19T22:01:37.124Z,100.00
2022-10-19T22:04:09.953Z,100.00
2022-10-19T22:06:39.214Z,100.00
2022-10-19T22:09:08.716Z,100.00
2022-10-19T22:11:36.946Z,100.00
2022-10-19T22:14:05.878Z,100.00
2022-10-19T22:16:36.847Z,100.00
2022-10-19T22:19:05.967Z,100.00
2022-10-19T22:21:35.580Z,100.00
2022-10-19T22:24:06.919Z,100.00
2022-10-19T22:26:38.348Z,100.00
2022-10-19T22:29:07.454Z,100.00
2022-10-19T22:31:36.413Z,100.00
2022-10-19T22:34:06.897Z,100.00
2022-10-19T22:36:34.644Z,100.00
2022-10-19T22:39:04.238Z,100.00
2022-10-19T22:41:32.130Z,100.00
2022-10-19T22:43:59.938Z,100.00
2022-10-19T22:46:27.765Z,100.00
2022-10-19T22:48:55.729Z,100.00
2022-10-19T22:51:23.783Z,100.00
2022-10-19T22:53:51.592Z,100.00
2022-10-19T22:56:20.884Z,100.00
2022-10-19T22:58:48.709Z,100.00
2022-10-19T23:01:17.386Z,100.00
2022-10-19T23:03:45.335Z,100.00
2022-10-19T23:06:15.313Z,100.00
2022-10-19T23:08:44.015Z,100.00
2022-10-19T23:11:13.474Z,100.00
2022-10-19T23:13:42.996Z,100.00
2022-10-19T23:16:11.219Z,100.00
2022-10-19T23:18:41.145Z,100.00
2022-10-19T23:21:11.588Z,100.00
2022-10-19T23:23:39.514Z,100.00
2022-10-19T23:26:09.981Z,100.00
2022-10-19T23:28:38.268Z,100.00
2022-10-19T23:31:09.502Z,100.00
2022-10-19T23:33:37.734Z,100.00
2022-10-19T23:36:07.623Z,100.00
2022-10-19T23:38:35.805Z,100.00
2022-10-19T23:41:03.760Z,100.00
2022-10-19T23:43:31.747Z,100.00
2022-10-19T23:45:59.895Z,100.00
2022-10-19T23:48:29.929Z,100.00
2022-10-19T23:50:59.684Z,100.00
2022-10-19T23:53:28.548Z,100.00
2022-10-19T23:55:59.696Z,100.00
2022-10-19T23:58:27.913Z,100.00
